Terminal Aerodrome Forecast
Issued by NWS

Home | Current Version | Previous Version | Text Only | Print | Product List | Glossary On
Versions: 1 2 3 4 5 6 7 8 9 10 11 12 13 14
000
FTUS43 KGRB 160500
TAFAUW
TAF
KAUW 160520Z 1606/1706 30003KT P6SM SKC
      TEMPO 1608/1612 3SM BR
     FM161600 27008G13KT P6SM SCT035
     FM162300 24004KT P6SM SKC=

USA.gov is the U.S. government's official web portal to all federal, state and local government web resources and services.